地図

経路データ

SID SEASON NUMBER BASIN SUBBASIN NAME ISO_TIME NATURE LAT LON WMO_WIND WMO_PRES WMO_AGENCY TRACK_TYPE DIST2LAND LANDFALL IFLAG USA_AGENCY USA_ATCF_ID USA_LAT USA_LON USA_RECORD USA_STATUS USA_WIND USA_PRES USA_SSHS USA_R34_NE USA_R34_SE USA_R34_SW USA_R34_NW USA_R50_NE USA_R50_SE USA_R50_SW USA_R50_NW USA_R64_NE USA_R64_SE USA_R64_SW USA_R64_NW USA_POCI USA_ROCI USA_RMW USA_EYE TOKYO_LAT TOKYO_LON TOKYO_GRADE TOKYO_WIND TOKYO_PRES TOKYO_R50_DIR TOKYO_R50_LONG TOKYO_R50_SHORT TOKYO_R30_DIR TOKYO_R30_LONG TOKYO_R30_SHORT TOKYO_LAND CMA_LAT CMA_LON CMA_CAT CMA_WIND CMA_PRES HKO_LAT HKO_LON HKO_CAT HKO_WIND HKO_PRES NEWDELHI_LAT NEWDELHI_LON NEWDELHI_GRADE NEWDELHI_WIND NEWDELHI_PRES NEWDELHI_CI NEWDELHI_DP NEWDELHI_POCI REUNION_LAT REUNION_LON REUNION_TYPE REUNION_WIND REUNION_PRES REUNION_TNUM REUNION_CI REUNION_RMW REUNION_R34_NE REUNION_R34_SE REUNION_R34_SW REUNION_R34_NW REUNION_R50_NE REUNION_R50_SE REUNION_R50_SW REUNION_R50_NW REUNION_R64_NE REUNION_R64_SE REUNION_R64_SW REUNION_R64_NW BOM_LAT BOM_LON BOM_TYPE BOM_WIND BOM_PRES BOM_TNUM BOM_CI BOM_RMW BOM_R34_NE BOM_R34_SE BOM_R34_SW BOM_R34_NW BOM_R50_NE BOM_R50_SE BOM_R50_SW BOM_R50_NW BOM_R64_NE BOM_R64_SE BOM_R64_SW BOM_R64_NW BOM_ROCI BOM_POCI BOM_EYE BOM_POS_METHOD BOM_PRES_METHOD NADI_LAT NADI_LON NADI_CAT NADI_WIND NADI_PRES WELLINGTON_LAT WELLINGTON_LON WELLINGTON_WIND WELLINGTON_PRES DS824_LAT DS824_LON DS824_STAGE DS824_WIND DS824_PRES TD9636_LAT TD9636_LON TD9636_STAGE TD9636_WIND TD9636_PRES TD9635_LAT TD9635_LON TD9635_WIND TD9635_PRES TD9635_ROCI NEUMANN_LAT NEUMANN_LON NEUMANN_CLASS NEUMANN_WIND NEUMANN_PRES MLC_LAT MLC_LON MLC_CLASS MLC_WIND MLC_PRES USA_GUST BOM_GUST BOM_GUST_PER REUNION_GUST REUNION_GUST_PER USA_SEAHGT USA_SEARAD_NE USA_SEARAD_SE USA_SEARAD_SW USA_SEARAD_NW STORM_SPEED STORM_DIR
1912351N10147 1912 69 WP MM NOT_NAMED 1912-12-16 09:00:00 NR 9.60000 147.000 main 1311 1311 __________O___ -1 9.60000 147.000 2 15 288
1912351N10147 1912 69 WP MM NOT_NAMED 1912-12-16 12:00:00 NR 9.83091 146.259 main 1333 1333 __________P___ -1 9.83091 146.259 2 15 287
1912351N10147 1912 69 WP MM NOT_NAMED 1912-12-16 15:00:00 NR 10.0589 145.513 main 1372 1372 __________P___ -1 10.0589 145.513 2 15 287
1912351N10147 1912 69 WP MM NOT_NAMED 1912-12-16 18:00:00 NR 10.2824 144.761 main 1403 1403 __________P___ -1 10.2824 144.761 2 16 287
1912351N10147 1912 69 WP MM NOT_NAMED 1912-12-16 21:00:00 NR 10.5000 144.000 main 1440 1440 __________O___ -1 10.5000 144.000 2 16 286
1912351N10147 1912 69 WP MM NOT_NAMED 1912-12-17 00:00:00 NR 10.7106 143.226 main 1482 1476 __________P___ -1 10.7106 143.226 2 16 285
1912351N10147 1912 69 WP MM NOT_NAMED 1912-12-17 03:00:00 NR 10.9140 142.437 main 1475 1470 __________P___ -1 10.9140 142.437 2 16 284
1912351N10147 1912 69 WP MM NOT_NAMED 1912-12-17 06:00:00 NR 11.1105 141.629 main 1471 1458 __________P___ -1 11.1105 141.629 2 17 284
1912351N10147 1912 69 WP MM NOT_NAMED 1912-12-17 09:00:00 NR 11.3000 140.800 main 1460 1443 __________O___ -1 11.3000 140.800 2 17 282
1912351N10147 1912 69 WP MM NOT_NAMED 1912-12-17 12:00:00 NR 11.4868 139.894 main 1447 1427 __________P___ -1 11.4868 139.894 2 18 282
1912351N10147 1912 69 WP MM NOT_NAMED 1912-12-17 15:00:00 NR 11.6659 138.975 main 1427 1334 __________P___ -1 11.6659 138.975 2 18 281
1912351N10147 1912 69 WP MM NOT_NAMED 1912-12-17 18:00:00 NR 11.8369 138.094 main 1334 1253 __________P___ -1 11.8369 138.094 2 17 282
1912351N10147 1912 69 WP MM NOT_NAMED 1912-12-17 21:00:00 NR 12.0000 137.300 main 1253 1193 __________O___ -1 12.0000 137.300 2 14 282
1912351N10147 1912 69 WP MM NOT_NAMED 1912-12-18 00:00:00 NR 12.1476 136.652 main 1193 1131 __________P___ -1 12.1476 136.652 2 12 284
1912351N10147 1912 69 WP MM NOT_NAMED 1912-12-18 03:00:00 NR 12.2907 136.094 main 1131 1079 __________P___ -1 12.2907 136.094 2 11 286
1912351N10147 1912 69 WP MM NOT_NAMED 1912-12-18 06:00:00 NR 12.4385 135.590 main 1079 1028 __________P___ -1 12.4385 135.590 2 10 288
1912351N10147 1912 69 WP MM NOT_NAMED 1912-12-18 09:00:00 NR 12.6000 135.100 main 1028 976 __________O___ -1 12.6000 135.100 2 11 289
1912351N10147 1912 69 WP MM NOT_NAMED 1912-12-18 12:00:00 NR 12.7814 134.552 main 979 920 __________P___ -1 12.7814 134.552 2 11 290
1912351N10147 1912 69 WP MM NOT_NAMED 1912-12-18 15:00:00 NR 12.9773 134.012 main 920 873 __________P___ -1 12.9773 134.012 2 11 291
1912351N10147 1912 69 WP MM NOT_NAMED 1912-12-18 18:00:00 NR 13.1846 133.492 main 873 824 __________P___ -1 13.1846 133.492 2 11 293
1912351N10147 1912 69 WP MM NOT_NAMED 1912-12-18 21:00:00 NR 13.4000 133.000 main 824 785 __________O___ -1 13.4000 133.000 2 10 295
1912351N10147 1912 69 WP MM NOT_NAMED 1912-12-19 00:00:00 NR 13.6134 132.538 main 775 737 __________P___ -1 13.6134 132.538 2 10 297
1912351N10147 1912 69 WP MM NOT_NAMED 1912-12-19 03:00:00 NR 13.8345 132.105 main 737 701 __________P___ -1 13.8345 132.105 2 9 299
1912351N10147 1912 69 WP MM NOT_NAMED 1912-12-19 06:00:00 NR 14.0634 131.694 main 704 670 __________P___ -1 14.0634 131.694 2 9 301
1912351N10147 1912 69 WP MM NOT_NAMED 1912-12-19 09:00:00 NR 14.3000 131.300 main 670 638 __________O___ -1 14.3000 131.300 2 9 298
1912351N10147 1912 69 WP MM NOT_NAMED 1912-12-19 12:00:00 NR 14.4696 130.893 main 638 604 __________P___ -1 14.4696 130.893 2 9 295
1912351N10147 1912 69 WP MM NOT_NAMED 1912-12-19 15:00:00 NR 14.6575 130.504 main 609 585 __________P___ -1 14.6575 130.504 2 9 301
1912351N10147 1912 69 WP MM NOT_NAMED 1912-12-19 18:00:00 NR 14.9166 130.137 main 582 573 __________P___ -1 14.9166 130.137 2 9 313
1912351N10147 1912 69 WP MM NOT_NAMED 1912-12-19 21:00:00 NR 15.3000 129.800 main 579 576 __________O___ -1 15.3000 129.800 2 12 326
1912351N10147 1912 69 WP MM NOT_NAMED 1912-12-20 00:00:00 NR 15.8949 129.465 main 592 582 __________P___ -1 15.8949 129.465 2 15 335
1912351N10147 1912 69 WP MM NOT_NAMED 1912-12-20 03:00:00 NR 16.6101 129.162 main 597 593 __________P___ -1 16.6101 129.162 2 16 340
1912351N10147 1912 69 WP MM NOT_NAMED 1912-12-20 06:00:00 NR 17.3701 128.902 main 621 621 __________P___ -1 17.3701 128.902 2 16 344
1912351N10147 1912 69 WP MM NOT_NAMED 1912-12-20 09:00:00 NR 18.1000 128.700 main 657 654 __________O___ -1 18.1000 128.700 2 12 339
1912351N10147 1912 69 WP MM NOT_NAMED 1912-12-20 12:00:00 NR 18.5183 128.443 main 643 633 __________P___ -1 18.5183 128.443 2 9 333
1912351N10147 1912 69 WP MM NOT_NAMED 1912-12-20 15:00:00 NR 18.9220 128.261 main 634 625 __________P___ -1 18.9220 128.261 2 10 348
1912351N10147 1912 69 WP MM NOT_NAMED 1912-12-20 18:00:00 NR 19.4646 128.223 main 632 632 __________P___ -1 19.4646 128.223 2 14 5
1912351N10147 1912 69 WP MM NOT_NAMED 1912-12-20 21:00:00 NR 20.3000 128.400 main 674 674 __________O___ -1 20.3000 128.400 2 23 14
1912351N10147 1912 69 WP MM NOT_NAMED 1912-12-21 00:00:00 NR 21.7252 128.827 main 771 763 __________P___ -1 21.7252 128.827 2 33 18
1912351N10147 1912 69 WP MM NOT_NAMED 1912-12-21 03:00:00 NR 23.4301 129.487 main 780 659 __________P___ -1 23.4301 129.487 2 38 22
1912351N10147 1912 69 WP MM NOT_NAMED 1912-12-21 06:00:00 NR 25.1948 130.330 main 648 482 __________P___ -1 25.1948 130.330 2 38 26
1912351N10147 1912 69 WP MM NOT_NAMED 1912-12-21 09:00:00 NR 26.8000 131.300 main 472 364 __________O___ -1 26.8000 131.300 2 34 32
1912351N10147 1912 69 WP MM NOT_NAMED 1912-12-21 12:00:00 NR 28.0816 132.340 main 358 323 __________P___ -1 28.0816 132.340 2 30 39
1912351N10147 1912 69 WP MM NOT_NAMED 1912-12-21 15:00:00 NR 29.0814 133.427 main 320 319 __________P___ -1 29.0814 133.427 2 27 47
1912351N10147 1912 69 WP MM NOT_NAMED 1912-12-21 18:00:00 NR 29.8907 134.551 main 347 312 __________P___ -1 29.8907 134.551 2 25 52
1912351N10147 1912 69 WP MM NOT_NAMED 1912-12-21 21:00:00 NR 30.6000 135.700 main 312 __________O___ -1 30.6000 135.700 2 24 54

デジタル台風データ・検索

IBTrACS Databaseについて

本データベースは、米国NOAAが公開する1842年以降の世界の熱帯低気圧のベストトラックデータアーカイブInternational Best Track Archive for Climate Stewardship (IBTrACS)を、ウェブで閲覧しやすい形式に変換したものです。

最終更新日:2021-11-26